sensor_id;sensor_type;location;lat;lon;timestamp;temperature;humidity
18998;DHT22;9632;51.018;4.284;2023-05-07T00:02:22;18.30;99.90
18998;DHT22;9632;51.018;4.284;2023-05-07T00:04:48;18.30;99.90
18998;DHT22;9632;51.018;4.284;2023-05-07T00:07:14;18.20;99.90
18998;DHT22;9632;51.018;4.284;2023-05-07T00:09:40;18.20;99.90
18998;DHT22;9632;51.018;4.284;2023-05-07T00:12:07;18.20;99.90
18998;DHT22;9632;51.018;4.284;2023-05-07T00:14:32;18.20;99.90
18998;DHT22;9632;51.018;4.284;2023-05-07T00:16:58;18.20;99.90
18998;DHT22;9632;51.018;4.284;2023-05-07T00:19:23;18.20;99.90
18998;DHT22;9632;51.018;4.284;2023-05-07T00:21:49;18.20;99.90
18998;DHT22;9632;51.018;4.284;2023-05-07T00:24:15;18.20;99.90
18998;DHT22;9632;51.018;4.284;2023-05-07T00:26:41;18.20;99.90
18998;DHT22;9632;51.018;4.284;2023-05-07T00:29:06;18.20;99.90
18998;DHT22;9632;51.018;4.284;2023-05-07T00:31:32;18.20;99.90
18998;DHT22;9632;51.018;4.284;2023-05-07T00:33:57;18.20;99.90
18998;DHT22;9632;51.018;4.284;2023-05-07T00:36:23;18.20;99.90
18998;DHT22;9632;51.018;4.284;2023-05-07T00:38:49;18.20;99.90
18998;DHT22;9632;51.018;4.284;2023-05-07T00:41:15;18.20;99.90
18998;DHT22;9632;51.018;4.284;2023-05-07T00:43:40;18.10;99.90
18998;DHT22;9632;51.018;4.284;2023-05-07T00:46:06;18.20;99.90
18998;DHT22;9632;51.018;4.284;2023-05-07T00:48:32;18.20;99.90
18998;DHT22;9632;51.018;4.284;2023-05-07T00:50:57;18.10;99.90
18998;DHT22;9632;51.018;4.284;2023-05-07T00:53:23;18.10;99.90
18998;DHT22;9632;51.018;4.284;2023-05-07T00:55:50;18.10;99.90
18998;DHT22;9632;51.018;4.284;2023-05-07T00:58:16;18.10;99.90
18998;DHT22;9632;51.018;4.284;2023-05-07T01:00:41;18.10;99.90
18998;DHT22;9632;51.018;4.284;2023-05-07T01:03:07;18.10;99.90
18998;DHT22;9632;51.018;4.284;2023-05-07T01:05:33;18.10;99.90
18998;DHT22;9632;51.018;4.284;2023-05-07T01:07:59;18.00;99.90
18998;DHT22;9632;51.018;4.284;2023-05-07T01:10:26;18.00;99.90
18998;DHT22;9632;51.018;4.284;2023-05-07T01:12:52;18.00;99.90
18998;DHT22;9632;51.018;4.284;2023-05-07T01:15:19;17.90;99.90
18998;DHT22;9632;51.018;4.284;2023-05-07T01:17:45;17.90;99.90
18998;DHT22;9632;51.018;4.284;2023-05-07T01:20:11;17.90;99.90
18998;DHT22;9632;51.018;4.284;2023-05-07T01:22:38;17.90;99.90
18998;DHT22;9632;51.018;4.284;2023-05-07T01:25:05;17.90;99.90
18998;DHT22;9632;51.018;4.284;2023-05-07T01:27:31;17.80;99.90
18998;DHT22;9632;51.018;4.284;2023-05-07T01:29:58;17.80;99.90
18998;DHT22;9632;51.018;4.284;2023-05-07T01:32:48;17.80;99.90
18998;DHT22;9632;51.018;4.284;2023-05-07T01:35:18;17.80;99.90
18998;DHT22;9632;51.018;4.284;2023-05-07T01:37:46;17.70;99.90
18998;DHT22;9632;51.018;4.284;2023-05-07T01:40:13;17.70;99.90
18998;DHT22;9632;51.018;4.284;2023-05-07T01:42:39;17.60;99.90
18998;DHT22;9632;51.018;4.284;2023-05-07T01:45:06;17.60;99.90
18998;DHT22;9632;51.018;4.284;2023-05-07T01:47:32;17.60;99.90
18998;DHT22;9632;51.018;4.284;2023-05-07T01:49:58;17.50;99.90
18998;DHT22;9632;51.018;4.284;2023-05-07T01:52:24;17.60;99.90
18998;DHT22;9632;51.018;4.284;2023-05-07T01:54:50;17.50;99.90
18998;DHT22;9632;51.018;4.284;2023-05-07T01:57:16;17.50;99.90
18998;DHT22;9632;51.018;4.284;2023-05-07T01:59:41;17.40;99.90
18998;DHT22;9632;51.018;4.284;2023-05-07T02:02:07;17.40;99.90
18998;DHT22;9632;51.018;4.284;2023-05-07T02:04:33;17.40;99.90
18998;DHT22;9632;51.018;4.284;2023-05-07T02:06:58;17.40;99.90
18998;DHT22;9632;51.018;4.284;2023-05-07T02:09:24;17.30;99.90
18998;DHT22;9632;51.018;4.284;2023-05-07T02:11:50;17.30;99.90
18998;DHT22;9632;51.018;4.284;2023-05-07T02:14:15;17.30;99.90
18998;DHT22;9632;51.018;4.284;2023-05-07T02:16:41;17.30;99.90
18998;DHT22;9632;51.018;4.284;2023-05-07T02:19:07;17.20;99.90
18998;DHT22;9632;51.018;4.284;2023-05-07T02:21:32;17.20;99.90
18998;DHT22;9632;51.018;4.284;2023-05-07T02:23:58;17.20;99.90
18998;DHT22;9632;51.018;4.284;2023-05-07T02:26:24;17.20;99.90
18998;DHT22;9632;51.018;4.284;2023-05-07T02:28:50;17.10;99.90
18998;DHT22;9632;51.018;4.284;2023-05-07T02:31:16;17.10;99.90
18998;DHT22;9632;51.018;4.284;2023-05-07T02:33:41;17.10;99.90
18998;DHT22;9632;51.018;4.284;2023-05-07T02:36:08;17.10;99.90
18998;DHT22;9632;51.018;4.284;2023-05-07T02:38:35;17.10;99.90
18998;DHT22;9632;51.018;4.284;2023-05-07T02:41:00;17.10;99.90
18998;DHT22;9632;51.018;4.284;2023-05-07T02:43:26;17.00;99.90
18998;DHT22;9632;51.018;4.284;2023-05-07T02:46:08;17.10;99.90
18998;DHT22;9632;51.018;4.284;2023-05-07T02:48:34;17.00;99.90
18998;DHT22;9632;51.018;4.284;2023-05-07T02:51:00;17.00;99.90
18998;DHT22;9632;51.018;4.284;2023-05-07T02:53:26;17.10;99.90
18998;DHT22;9632;51.018;4.284;2023-05-07T02:55:56;17.10;99.90
18998;DHT22;9632;51.018;4.284;2023-05-07T02:58:22;17.10;99.90
18998;DHT22;9632;51.018;4.284;2023-05-07T03:00:48;17.10;99.90
18998;DHT22;9632;51.018;4.284;2023-05-07T03:03:14;17.00;99.90
18998;DHT22;9632;51.018;4.284;2023-05-07T03:05:40;17.00;99.90
18998;DHT22;9632;51.018;4.284;2023-05-07T03:08:05;17.00;99.90
18998;DHT22;9632;51.018;4.284;2023-05-07T03:10:31;17.00;99.90
18998;DHT22;9632;51.018;4.284;2023-05-07T03:12:57;17.00;99.90
18998;DHT22;9632;51.018;4.284;2023-05-07T03:15:22;17.00;99.90
18998;DHT22;9632;51.018;4.284;2023-05-07T03:17:48;17.00;99.90
18998;DHT22;9632;51.018;4.284;2023-05-07T03:20:14;17.00;99.90
18998;DHT22;9632;51.018;4.284;2023-05-07T03:22:40;17.00;99.90
18998;DHT22;9632;51.018;4.284;2023-05-07T03:25:06;17.00;99.90
18998;DHT22;9632;51.018;4.284;2023-05-07T03:27:32;17.00;99.90
18998;DHT22;9632;51.018;4.284;2023-05-07T03:29:58;17.00;99.90
18998;DHT22;9632;51.018;4.284;2023-05-07T03:32:24;17.00;99.90
18998;DHT22;9632;51.018;4.284;2023-05-07T03:34:50;17.00;99.90
18998;DHT22;9632;51.018;4.284;2023-05-07T03:37:15;17.00;99.90
18998;DHT22;9632;51.018;4.284;2023-05-07T03:39:41;17.00;99.90
18998;DHT22;9632;51.018;4.284;2023-05-07T03:42:06;17.00;99.90
18998;DHT22;9632;51.018;4.284;2023-05-07T03:44:32;17.00;99.90
18998;DHT22;9632;51.018;4.284;2023-05-07T03:46:58;17.00;99.90
18998;DHT22;9632;51.018;4.284;2023-05-07T03:49:23;17.00;99.90
18998;DHT22;9632;51.018;4.284;2023-05-07T03:51:49;17.10;99.90
18998;DHT22;9632;51.018;4.284;2023-05-07T03:54:15;17.00;99.90
18998;DHT22;9632;51.018;4.284;2023-05-07T03:56:40;17.00;99.90
18998;DHT22;9632;51.018;4.284;2023-05-07T03:59:06;17.00;99.90
18998;DHT22;9632;51.018;4.284;2023-05-07T04:01:32;17.00;99.90
18998;DHT22;9632;51.018;4.284;2023-05-07T04:03:57;17.00;99.90
18998;DHT22;9632;51.018;4.284;2023-05-07T04:06:23;17.10;99.90
18998;DHT22;9632;51.018;4.284;2023-05-07T04:08:49;17.10;99.90
18998;DHT22;9632;51.018;4.284;2023-05-07T04:11:15;17.10;99.90
18998;DHT22;9632;51.018;4.284;2023-05-07T04:13:40;17.10;99.90
18998;DHT22;9632;51.018;4.284;2023-05-07T04:16:08;17.10;99.90
18998;DHT22;9632;51.018;4.284;2023-05-07T04:18:33;17.10;99.90
18998;DHT22;9632;51.018;4.284;2023-05-07T04:20:59;17.10;99.90
18998;DHT22;9632;51.018;4.284;2023-05-07T04:23:25;17.10;99.90
18998;DHT22;9632;51.018;4.284;2023-05-07T04:25:50;17.10;99.90
18998;DHT22;9632;51.018;4.284;2023-05-07T04:28:16;17.10;99.90
18998;DHT22;9632;51.018;4.284;2023-05-07T04:30:42;17.10;99.90
18998;DHT22;9632;51.018;4.284;2023-05-07T04:33:07;17.10;99.90
18998;DHT22;9632;51.018;4.284;2023-05-07T04:35:33;17.10;99.90
18998;DHT22;9632;51.018;4.284;2023-05-07T04:38:00;17.10;99.90
18998;DHT22;9632;51.018;4.284;2023-05-07T04:40:25;17.10;99.90
18998;DHT22;9632;51.018;4.284;2023-05-07T04:42:51;17.20;99.90
18998;DHT22;9632;51.018;4.284;2023-05-07T04:45:18;17.20;99.90
18998;DHT22;9632;51.018;4.284;2023-05-07T04:47:44;17.20;99.90
18998;DHT22;9632;51.018;4.284;2023-05-07T04:50:10;17.20;99.90
18998;DHT22;9632;51.018;4.284;2023-05-07T04:52:36;17.20;99.90
18998;DHT22;9632;51.018;4.284;2023-05-07T04:55:01;17.20;99.90
18998;DHT22;9632;51.018;4.284;2023-05-07T04:57:27;17.20;99.90
18998;DHT22;9632;51.018;4.284;2023-05-07T04:59:53;17.30;99.90
18998;DHT22;9632;51.018;4.284;2023-05-07T05:02:19;17.30;99.90
18998;DHT22;9632;51.018;4.284;2023-05-07T05:04:45;17.30;99.90
18998;DHT22;9632;51.018;4.284;2023-05-07T05:07:11;17.30;99.90
18998;DHT22;9632;51.018;4.284;2023-05-07T05:09:36;17.30;99.90
18998;DHT22;9632;51.018;4.284;2023-05-07T05:12:02;17.30;99.90
18998;DHT22;9632;51.018;4.284;2023-05-07T05:14:29;17.40;99.90
18998;DHT22;9632;51.018;4.284;2023-05-07T05:16:54;17.40;99.90
18998;DHT22;9632;51.018;4.284;2023-05-07T05:19:20;17.40;99.90
18998;DHT22;9632;51.018;4.284;2023-05-07T05:21:46;17.40;99.90
18998;DHT22;9632;51.018;4.284;2023-05-07T05:24:11;17.50;99.90
18998;DHT22;9632;51.018;4.284;2023-05-07T05:26:37;17.50;99.90
18998;DHT22;9632;51.018;4.284;2023-05-07T05:29:03;17.50;99.90
18998;DHT22;9632;51.018;4.284;2023-05-07T05:31:29;17.60;99.90
18998;DHT22;9632;51.018;4.284;2023-05-07T05:33:55;17.60;99.90
18998;DHT22;9632;51.018;4.284;2023-05-07T05:36:20;17.70;99.90
18998;DHT22;9632;51.018;4.284;2023-05-07T05:38:46;17.70;99.90
18998;DHT22;9632;51.018;4.284;2023-05-07T05:41:12;17.70;99.90
18998;DHT22;9632;51.018;4.284;2023-05-07T05:43:37;17.80;99.90
18998;DHT22;9632;51.018;4.284;2023-05-07T05:46:03;17.80;99.90
18998;DHT22;9632;51.018;4.284;2023-05-07T05:48:29;17.90;99.90
18998;DHT22;9632;51.018;4.284;2023-05-07T05:50:55;17.90;99.90
18998;DHT22;9632;51.018;4.284;2023-05-07T05:53:21;17.90;99.90
18998;DHT22;9632;51.018;4.284;2023-05-07T05:55:47;17.90;99.90
18998;DHT22;9632;51.018;4.284;2023-05-07T05:58:12;18.00;99.90
18998;DHT22;9632;51.018;4.284;2023-05-07T06:00:38;18.00;99.90
18998;DHT22;9632;51.018;4.284;2023-05-07T06:03:04;18.00;99.90
18998;DHT22;9632;51.018;4.284;2023-05-07T06:05:29;18.10;99.90
18998;DHT22;9632;51.018;4.284;2023-05-07T06:07:56;18.10;99.90
18998;DHT22;9632;51.018;4.284;2023-05-07T06:10:21;18.10;99.90
18998;DHT22;9632;51.018;4.284;2023-05-07T06:12:47;18.10;99.90
18998;DHT22;9632;51.018;4.284;2023-05-07T06:15:12;18.10;99.90
18998;DHT22;9632;51.018;4.284;2023-05-07T06:17:38;18.10;99.90
18998;DHT22;9632;51.018;4.284;2023-05-07T06:20:04;18.10;99.90
18998;DHT22;9632;51.018;4.284;2023-05-07T06:22:30;18.10;99.90
18998;DHT22;9632;51.018;4.284;2023-05-07T06:24:56;18.10;99.90
18998;DHT22;9632;51.018;4.284;2023-05-07T06:27:21;18.10;99.90
18998;DHT22;9632;51.018;4.284;2023-05-07T06:29:48;18.10;99.90
18998;DHT22;9632;51.018;4.284;2023-05-07T06:32:14;18.10;99.90
18998;DHT22;9632;51.018;4.284;2023-05-07T06:34:40;18.10;99.90
18998;DHT22;9632;51.018;4.284;2023-05-07T06:37:06;18.10;99.90
18998;DHT22;9632;51.018;4.284;2023-05-07T06:39:32;18.20;99.90
18998;DHT22;9632;51.018;4.284;2023-05-07T06:41:59;18.10;99.90
18998;DHT22;9632;51.018;4.284;2023-05-07T06:44:25;18.10;99.90
18998;DHT22;9632;51.018;4.284;2023-05-07T06:46:51;18.10;99.90
18998;DHT22;9632;51.018;4.284;2023-05-07T06:49:17;18.10;99.90
18998;DHT22;9632;51.018;4.284;2023-05-07T06:51:43;18.10;99.90
18998;DHT22;9632;51.018;4.284;2023-05-07T06:54:09;18.10;99.90
18998;DHT22;9632;51.018;4.284;2023-05-07T06:56:36;18.20;99.90
18998;DHT22;9632;51.018;4.284;2023-05-07T06:59:02;18.20;99.90
18998;DHT22;9632;51.018;4.284;2023-05-07T07:01:28;18.20;99.90
18998;DHT22;9632;51.018;4.284;2023-05-07T07:03:54;18.30;99.90
18998;DHT22;9632;51.018;4.284;2023-05-07T07:06:20;18.30;99.90
18998;DHT22;9632;51.018;4.284;2023-05-07T07:08:47;18.30;99.90
18998;DHT22;9632;51.018;4.284;2023-05-07T07:11:13;18.30;99.90
18998;DHT22;9632;51.018;4.284;2023-05-07T07:13:38;18.40;99.90
18998;DHT22;9632;51.018;4.284;2023-05-07T07:16:05;18.40;99.90
18998;DHT22;9632;51.018;4.284;2023-05-07T07:18:31;18.40;99.90
18998;DHT22;9632;51.018;4.284;2023-05-07T07:20:57;18.40;99.90
18998;DHT22;9632;51.018;4.284;2023-05-07T07:23:23;18.40;99.90
18998;DHT22;9632;51.018;4.284;2023-05-07T07:25:49;18.50;99.90
18998;DHT22;9632;51.018;4.284;2023-05-07T07:28:15;18.40;99.90
18998;DHT22;9632;51.018;4.284;2023-05-07T07:30:41;18.50;99.90
18998;DHT22;9632;51.018;4.284;2023-05-07T07:33:06;18.50;99.90
18998;DHT22;9632;51.018;4.284;2023-05-07T07:35:32;18.40;99.90
18998;DHT22;9632;51.018;4.284;2023-05-07T07:37:58;18.50;99.90
18998;DHT22;9632;51.018;4.284;2023-05-07T07:40:24;18.50;99.90
18998;DHT22;9632;51.018;4.284;2023-05-07T07:42:53;18.50;99.90
18998;DHT22;9632;51.018;4.284;2023-05-07T07:45:19;18.50;99.90
18998;DHT22;9632;51.018;4.284;2023-05-07T07:47:45;18.50;99.90
18998;DHT22;9632;51.018;4.284;2023-05-07T07:50:11;18.50;99.90
18998;DHT22;9632;51.018;4.284;2023-05-07T07:52:36;18.50;99.90
18998;DHT22;9632;51.018;4.284;2023-05-07T07:55:03;18.60;99.90
18998;DHT22;9632;51.018;4.284;2023-05-07T07:57:28;18.60;99.90
18998;DHT22;9632;51.018;4.284;2023-05-07T07:59:54;18.60;99.90
18998;DHT22;9632;51.018;4.284;2023-05-07T08:02:20;18.70;99.90
18998;DHT22;9632;51.018;4.284;2023-05-07T08:04:46;18.70;99.90
18998;DHT22;9632;51.018;4.284;2023-05-07T08:07:12;18.70;99.90
18998;DHT22;9632;51.018;4.284;2023-05-07T08:09:39;18.70;99.90
18998;DHT22;9632;51.018;4.284;2023-05-07T08:12:08;18.70;99.90
18998;DHT22;9632;51.018;4.284;2023-05-07T08:14:34;18.80;99.90
18998;DHT22;9632;51.018;4.284;2023-05-07T08:17:01;18.80;99.90
18998;DHT22;9632;51.018;4.284;2023-05-07T08:19:27;18.80;99.90
18998;DHT22;9632;51.018;4.284;2023-05-07T08:21:53;18.80;99.90
18998;DHT22;9632;51.018;4.284;2023-05-07T08:24:18;18.80;99.90
18998;DHT22;9632;51.018;4.284;2023-05-07T08:26:44;18.80;99.90
18998;DHT22;9632;51.018;4.284;2023-05-07T08:29:10;18.90;99.90
18998;DHT22;9632;51.018;4.284;2023-05-07T08:31:36;18.90;99.90
18998;DHT22;9632;51.018;4.284;2023-05-07T08:34:03;18.90;99.90
18998;DHT22;9632;51.018;4.284;2023-05-07T08:36:28;18.90;99.90
18998;DHT22;9632;51.018;4.284;2023-05-07T08:38:54;19.00;99.90
18998;DHT22;9632;51.018;4.284;2023-05-07T08:41:20;19.00;99.90
18998;DHT22;9632;51.018;4.284;2023-05-07T08:43:50;19.00;99.90
18998;DHT22;9632;51.018;4.284;2023-05-07T08:46:21;19.00;99.90
18998;DHT22;9632;51.018;4.284;2023-05-07T08:48:50;19.10;99.90
18998;DHT22;9632;51.018;4.284;2023-05-07T08:51:18;19.10;99.90
18998;DHT22;9632;51.018;4.284;2023-05-07T08:53:45;19.10;99.90
18998;DHT22;9632;51.018;4.284;2023-05-07T08:56:12;19.10;99.90
18998;DHT22;9632;51.018;4.284;2023-05-07T08:58:37;19.20;99.90
18998;DHT22;9632;51.018;4.284;2023-05-07T09:01:07;19.20;99.90
18998;DHT22;9632;51.018;4.284;2023-05-07T09:03:33;19.20;99.90
18998;DHT22;9632;51.018;4.284;2023-05-07T09:05:59;19.30;99.90
18998;DHT22;9632;51.018;4.284;2023-05-07T09:08:26;19.20;99.90
18998;DHT22;9632;51.018;4.284;2023-05-07T09:10:52;19.30;99.90
18998;DHT22;9632;51.018;4.284;2023-05-07T09:13:18;19.30;99.90
18998;DHT22;9632;51.018;4.284;2023-05-07T09:15:44;19.30;99.90
18998;DHT22;9632;51.018;4.284;2023-05-07T09:18:09;19.30;99.90
18998;DHT22;9632;51.018;4.284;2023-05-07T09:20:38;19.20;99.90
18998;DHT22;9632;51.018;4.284;2023-05-07T09:23:06;19.20;99.90
18998;DHT22;9632;51.018;4.284;2023-05-07T09:25:33;19.30;99.90
18998;DHT22;9632;51.018;4.284;2023-05-07T09:28:00;19.30;99.90
18998;DHT22;9632;51.018;4.284;2023-05-07T09:30:33;19.30;99.90
18998;DHT22;9632;51.018;4.284;2023-05-07T09:33:01;19.30;99.90
18998;DHT22;9632;51.018;4.284;2023-05-07T09:35:27;19.30;99.90
18998;DHT22;9632;51.018;4.284;2023-05-07T09:37:55;19.30;99.90
18998;DHT22;9632;51.018;4.284;2023-05-07T09:40:26;19.30;99.90
18998;DHT22;9632;51.018;4.284;2023-05-07T09:42:52;19.30;99.90
18998;DHT22;9632;51.018;4.284;2023-05-07T09:45:25;19.40;99.90
18998;DHT22;9632;51.018;4.284;2023-05-07T09:47:57;19.40;99.90
18998;DHT22;9632;51.018;4.284;2023-05-07T09:50:35;19.50;99.90
18998;DHT22;9632;51.018;4.284;2023-05-07T09:53:03;19.50;99.90
18998;DHT22;9632;51.018;4.284;2023-05-07T09:55:29;19.40;99.90
18998;DHT22;9632;51.018;4.284;2023-05-07T09:57:55;19.50;99.90
18998;DHT22;9632;51.018;4.284;2023-05-07T10:00:22;19.50;99.90
18998;DHT22;9632;51.018;4.284;2023-05-07T10:02:51;19.50;99.90
18998;DHT22;9632;51.018;4.284;2023-05-07T10:05:21;19.50;99.90
18998;DHT22;9632;51.018;4.284;2023-05-07T10:07:47;19.50;99.90
18998;DHT22;9632;51.018;4.284;2023-05-07T10:10:14;19.50;99.90
18998;DHT22;9632;51.018;4.284;2023-05-07T10:12:41;19.50;99.90
18998;DHT22;9632;51.018;4.284;2023-05-07T10:15:08;19.50;99.90
18998;DHT22;9632;51.018;4.284;2023-05-07T10:17:38;19.60;99.90
18998;DHT22;9632;51.018;4.284;2023-05-07T10:20:08;19.60;99.90
18998;DHT22;9632;51.018;4.284;2023-05-07T10:22:45;19.60;99.90
18998;DHT22;9632;51.018;4.284;2023-05-07T10:25:22;19.60;99.90
18998;DHT22;9632;51.018;4.284;2023-05-07T10:27:50;19.60;99.90
18998;DHT22;9632;51.018;4.284;2023-05-07T10:30:35;19.60;99.90
18998;DHT22;9632;51.018;4.284;2023-05-07T10:33:05;19.60;99.90
18998;DHT22;9632;51.018;4.284;2023-05-07T10:35:38;19.70;99.90
18998;DHT22;9632;51.018;4.284;2023-05-07T10:38:06;19.60;99.90
18998;DHT22;9632;51.018;4.284;2023-05-07T10:40:32;19.70;99.90
18998;DHT22;9632;51.018;4.284;2023-05-07T10:42:59;19.70;99.90
18998;DHT22;9632;51.018;4.284;2023-05-07T10:45:26;19.70;99.90
18998;DHT22;9632;51.018;4.284;2023-05-07T10:48:08;19.70;99.90
18998;DHT22;9632;51.018;4.284;2023-05-07T10:50:34;19.70;99.90
18998;DHT22;9632;51.018;4.284;2023-05-07T10:53:26;19.80;99.90
18998;DHT22;9632;51.018;4.284;2023-05-07T10:58:44;19.80;99.90
18998;DHT22;9632;51.018;4.284;2023-05-07T11:01:10;19.90;99.90
18998;DHT22;9632;51.018;4.284;2023-05-07T11:04:13;19.90;99.90
18998;DHT22;9632;51.018;4.284;2023-05-07T11:06:40;19.90;99.90
18998;DHT22;9632;51.018;4.284;2023-05-07T11:09:06;19.90;99.90
18998;DHT22;9632;51.018;4.284;2023-05-07T11:11:48;19.90;99.90
18998;DHT22;9632;51.018;4.284;2023-05-07T11:17:07;19.90;99.90
18998;DHT22;9632;51.018;4.284;2023-05-07T11:19:59;19.90;99.90
18998;DHT22;9632;51.018;4.284;2023-05-07T11:25:00;20.00;99.90
18998;DHT22;9632;51.018;4.284;2023-05-07T11:27:26;19.90;99.90
18998;DHT22;9632;51.018;4.284;2023-05-07T11:29:52;20.00;99.90
18998;DHT22;9632;51.018;4.284;2023-05-07T11:32:28;20.00;99.90
18998;DHT22;9632;51.018;4.284;2023-05-07T11:34:59;20.10;99.90
18998;DHT22;9632;51.018;4.284;2023-05-07T11:37:26;20.10;99.90
18998;DHT22;9632;51.018;4.284;2023-05-07T11:40:07;20.10;99.90
18998;DHT22;9632;51.018;4.284;2023-05-07T11:42:35;20.10;99.90
18998;DHT22;9632;51.018;4.284;2023-05-07T11:45:03;20.10;99.90
18998;DHT22;9632;51.018;4.284;2023-05-07T11:47:33;20.10;99.90
18998;DHT22;9632;51.018;4.284;2023-05-07T11:50:04;20.10;99.90
18998;DHT22;9632;51.018;4.284;2023-05-07T11:52:31;20.20;99.90
18998;DHT22;9632;51.018;4.284;2023-05-07T11:54:58;20.20;99.90
18998;DHT22;9632;51.018;4.284;2023-05-07T11:57:25;20.30;99.90
18998;DHT22;9632;51.018;4.284;2023-05-07T11:59:55;20.30;99.90
18998;DHT22;9632;51.018;4.284;2023-05-07T12:02:21;20.30;99.90
18998;DHT22;9632;51.018;4.284;2023-05-07T12:04:47;20.40;99.90
18998;DHT22;9632;51.018;4.284;2023-05-07T12:07:14;20.40;99.90
18998;DHT22;9632;51.018;4.284;2023-05-07T12:09:41;20.40;99.90
18998;DHT22;9632;51.018;4.284;2023-05-07T12:12:07;20.40;99.90
18998;DHT22;9632;51.018;4.284;2023-05-07T12:14:32;20.40;99.90
18998;DHT22;9632;51.018;4.284;2023-05-07T12:17:01;20.40;99.90
18998;DHT22;9632;51.018;4.284;2023-05-07T12:19:30;20.40;99.90
18998;DHT22;9632;51.018;4.284;2023-05-07T12:21:56;20.40;99.90
18998;DHT22;9632;51.018;4.284;2023-05-07T12:24:22;20.50;99.90
18998;DHT22;9632;51.018;4.284;2023-05-07T12:26:48;20.60;99.90
18998;DHT22;9632;51.018;4.284;2023-05-07T12:29:14;20.60;99.90
18998;DHT22;9632;51.018;4.284;2023-05-07T12:31:41;20.60;99.90
18998;DHT22;9632;51.018;4.284;2023-05-07T12:34:07;20.70;99.90
18998;DHT22;9632;51.018;4.284;2023-05-07T12:36:40;20.70;99.90
18998;DHT22;9632;51.018;4.284;2023-05-07T12:39:09;20.70;99.90
18998;DHT22;9632;51.018;4.284;2023-05-07T12:41:58;20.70;99.90
18998;DHT22;9632;51.018;4.284;2023-05-07T12:44:33;20.70;99.90
18998;DHT22;9632;51.018;4.284;2023-05-07T12:47:02;20.70;99.90
18998;DHT22;9632;51.018;4.284;2023-05-07T12:49:28;20.80;99.90
18998;DHT22;9632;51.018;4.284;2023-05-07T12:51:54;20.80;99.90
18998;DHT22;9632;51.018;4.284;2023-05-07T12:54:31;20.90;99.90
18998;DHT22;9632;51.018;4.284;2023-05-07T12:57:05;20.90;99.90
18998;DHT22;9632;51.018;4.284;2023-05-07T12:59:38;20.90;99.90
18998;DHT22;9632;51.018;4.284;2023-05-07T13:02:05;20.90;99.90
18998;DHT22;9632;51.018;4.284;2023-05-07T13:04:31;20.90;99.90
18998;DHT22;9632;51.018;4.284;2023-05-07T13:06:58;21.00;99.90
18998;DHT22;9632;51.018;4.284;2023-05-07T13:09:23;21.00;99.90
18998;DHT22;9632;51.018;4.284;2023-05-07T13:11:49;21.10;99.90
18998;DHT22;9632;51.018;4.284;2023-05-07T13:14:15;21.20;99.90
18998;DHT22;9632;51.018;4.284;2023-05-07T13:16:41;21.20;99.90
18998;DHT22;9632;51.018;4.284;2023-05-07T13:19:07;21.20;99.90
18998;DHT22;9632;51.018;4.284;2023-05-07T13:21:32;21.20;99.90
18998;DHT22;9632;51.018;4.284;2023-05-07T13:23:58;21.20;99.90
18998;DHT22;9632;51.018;4.284;2023-05-07T13:26:24;21.30;99.90
18998;DHT22;9632;51.018;4.284;2023-05-07T13:28:50;21.30;99.90
18998;DHT22;9632;51.018;4.284;2023-05-07T13:31:17;21.30;99.90
18998;DHT22;9632;51.018;4.284;2023-05-07T13:33:43;21.40;99.90
18998;DHT22;9632;51.018;4.284;2023-05-07T13:36:09;21.50;99.90
18998;DHT22;9632;51.018;4.284;2023-05-07T13:38:35;21.50;99.90
18998;DHT22;9632;51.018;4.284;2023-05-07T13:41:01;21.50;99.90
18998;DHT22;9632;51.018;4.284;2023-05-07T13:43:26;21.50;99.90
18998;DHT22;9632;51.018;4.284;2023-05-07T13:45:52;21.50;99.90
18998;DHT22;9632;51.018;4.284;2023-05-07T13:48:17;21.60;99.90
18998;DHT22;9632;51.018;4.284;2023-05-07T13:50:43;21.60;99.90
18998;DHT22;9632;51.018;4.284;2023-05-07T13:53:09;21.60;99.90
18998;DHT22;9632;51.018;4.284;2023-05-07T13:55:34;21.60;99.90
18998;DHT22;9632;51.018;4.284;2023-05-07T13:58:01;21.60;99.90
18998;DHT22;9632;51.018;4.284;2023-05-07T14:00:28;21.60;99.90
18998;DHT22;9632;51.018;4.284;2023-05-07T14:02:55;21.50;99.90
18998;DHT22;9632;51.018;4.284;2023-05-07T14:05:21;21.50;99.90
18998;DHT22;9632;51.018;4.284;2023-05-07T14:07:51;21.50;99.90
18998;DHT22;9632;51.018;4.284;2023-05-07T14:10:17;21.40;99.90
18998;DHT22;9632;51.018;4.284;2023-05-07T14:12:44;21.40;99.90
18998;DHT22;9632;51.018;4.284;2023-05-07T14:15:10;21.40;99.90
18998;DHT22;9632;51.018;4.284;2023-05-07T14:17:37;21.40;99.90
18998;DHT22;9632;51.018;4.284;2023-05-07T14:20:03;21.40;99.90
18998;DHT22;9632;51.018;4.284;2023-05-07T14:22:28;21.30;99.90
18998;DHT22;9632;51.018;4.284;2023-05-07T14:24:54;21.30;99.90
18998;DHT22;9632;51.018;4.284;2023-05-07T14:27:20;21.30;99.90
18998;DHT22;9632;51.018;4.284;2023-05-07T14:29:46;21.30;99.90
18998;DHT22;9632;51.018;4.284;2023-05-07T14:32:17;21.30;99.90
18998;DHT22;9632;51.018;4.284;2023-05-07T14:34:43;21.30;99.90
18998;DHT22;9632;51.018;4.284;2023-05-07T14:37:08;21.40;99.90
18998;DHT22;9632;51.018;4.284;2023-05-07T14:39:34;21.40;99.90
18998;DHT22;9632;51.018;4.284;2023-05-07T14:42:00;21.40;99.90
18998;DHT22;9632;51.018;4.284;2023-05-07T14:44:25;21.40;99.90
18998;DHT22;9632;51.018;4.284;2023-05-07T14:46:51;21.50;99.90
18998;DHT22;9632;51.018;4.284;2023-05-07T14:49:17;21.50;99.90
18998;DHT22;9632;51.018;4.284;2023-05-07T14:51:46;21.50;99.90
18998;DHT22;9632;51.018;4.284;2023-05-07T14:54:13;21.50;99.90
18998;DHT22;9632;51.018;4.284;2023-05-07T14:56:39;21.50;99.90
18998;DHT22;9632;51.018;4.284;2023-05-07T14:59:05;21.50;99.90
18998;DHT22;9632;51.018;4.284;2023-05-07T15:01:31;21.50;99.90
18998;DHT22;9632;51.018;4.284;2023-05-07T15:03:57;21.50;99.90
18998;DHT22;9632;51.018;4.284;2023-05-07T15:06:22;21.40;99.90
18998;DHT22;9632;51.018;4.284;2023-05-07T15:08:48;21.50;99.90
18998;DHT22;9632;51.018;4.284;2023-05-07T15:11:14;21.50;99.90
18998;DHT22;9632;51.018;4.284;2023-05-07T15:13:41;21.50;99.90
18998;DHT22;9632;51.018;4.284;2023-05-07T15:16:07;21.50;99.90
18998;DHT22;9632;51.018;4.284;2023-05-07T15:18:33;21.50;99.90
18998;DHT22;9632;51.018;4.284;2023-05-07T15:20:58;21.50;99.90
18998;DHT22;9632;51.018;4.284;2023-05-07T15:23:24;21.50;99.90
18998;DHT22;9632;51.018;4.284;2023-05-07T15:25:51;21.50;99.90
18998;DHT22;9632;51.018;4.284;2023-05-07T15:28:17;21.50;99.90
18998;DHT22;9632;51.018;4.284;2023-05-07T15:30:43;21.50;99.90
18998;DHT22;9632;51.018;4.284;2023-05-07T15:33:09;21.50;99.90
18998;DHT22;9632;51.018;4.284;2023-05-07T15:35:34;21.50;99.90
18998;DHT22;9632;51.018;4.284;2023-05-07T15:38:00;21.60;99.90
18998;DHT22;9632;51.018;4.284;2023-05-07T15:40:29;21.60;99.90
18998;DHT22;9632;51.018;4.284;2023-05-07T15:42:56;21.60;99.90
18998;DHT22;9632;51.018;4.284;2023-05-07T15:45:22;21.50;99.90
18998;DHT22;9632;51.018;4.284;2023-05-07T15:47:49;21.50;99.90
18998;DHT22;9632;51.018;4.284;2023-05-07T15:50:14;21.50;99.90
18998;DHT22;9632;51.018;4.284;2023-05-07T15:52:40;21.50;99.90